Time,TemperatureF,DewpointF,PressureIn,WindDirection,WindDirectionDegrees,WindSpeedMPH,WindSpeedGustMPH,Humidity,HourlyPrecipIn,Conditions,Clouds,dailyrainin,SoftwareType,DateUTC
2013-02-12 00:22:00,40.6,40.1,30.24,NE,45,0.0,-999.0,98,-99.99,,,0.00,Acu-Link.com,2013-02-12 08:22:00,
2013-02-12 00:37:00,40.6,40.1,30.24,NE,45,0.0,-999.0,98,-99.99,,,0.00,Acu-Link.com,2013-02-12 08:37:00,
2013-02-12 00:53:00,40.6,40.1,30.24,ESE,112,0.0,-999.0,98,-99.99,,,0.00,Acu-Link.com,2013-02-12 08:53:00,
2013-02-12 01:19:00,40.6,40.1,30.24,ENE,67,1.1,-999.0,98,-99.99,,,0.00,Acu-Link.com,2013-02-12 09:19:00,
2013-02-12 01:34:00,40.6,40.1,30.24,NE,45,0.0,-999.0,98,-99.99,,,0.00,Acu-Link.com,2013-02-12 09:34:00,
2013-02-12 01:49:00,40.6,40.1,30.24,NNE,22,1.6,-999.0,98,-99.99,,,0.00,Acu-Link.com,2013-02-12 09:49:00,
2013-02-12 02:04:00,40.8,40.3,30.24,East,90,0.0,-999.0,98,-99.99,,,0.00,Acu-Link.com,2013-02-12 10:04:00,
2013-02-12 02:19:00,40.8,40.3,30.24,ESE,112,2.2,-999.0,98,-99.99,,,0.00,Acu-Link.com,2013-02-12 10:19:00,
2013-02-12 02:35:00,40.8,40.3,30.25,NE,45,0.0,-999.0,98,-99.99,,,0.00,Acu-Link.com,2013-02-12 10:35:00,
2013-02-12 02:50:00,40.6,40.1,30.24,ESE,112,1.6,-999.0,98,-99.99,,,0.00,Acu-Link.com,2013-02-12 10:50:00,
2013-02-12 03:05:00,40.6,40.1,30.24,ESE,112,0.0,-999.0,98,-99.99,,,0.01,Acu-Link.com,2013-02-12 11:05:00,
2013-02-12 03:20:00,40.6,40.1,30.25,ENE,67,2.7,-999.0,98,-99.99,,,0.01,Acu-Link.com,2013-02-12 11:20:00,
2013-02-12 03:35:00,40.6,40.1,30.25,ENE,67,0.0,-999.0,98,-99.99,,,0.01,Acu-Link.com,2013-02-12 11:35:00,
2013-02-12 03:50:00,40.6,40.1,30.25,East,90,2.2,-999.0,98,-99.99,,,0.01,Acu-Link.com,2013-02-12 11:50:00,
2013-02-12 04:06:00,40.5,39.9,30.24,SE,135,1.6,-999.0,98,-99.99,,,0.01,Acu-Link.com,2013-02-12 12:06:00,
2013-02-12 04:21:00,40.5,39.9,30.24,ESE,112,2.2,-999.0,98,-99.99,,,0.01,Acu-Link.com,2013-02-12 12:21:00,
2013-02-12 04:36:00,40.5,39.9,30.24,ENE,67,1.6,-999.0,98,-99.99,,,0.01,Acu-Link.com,2013-02-12 12:36:00,
2013-02-12 04:51:00,40.5,39.9,30.24,ESE,112,3.1,-999.0,98,-99.99,,,0.01,Acu-Link.com,2013-02-12 12:51:00,
2013-02-12 05:06:00,40.5,39.9,30.24,ENE,67,1.1,-999.0,98,-99.99,,,0.01,Acu-Link.com,2013-02-12 13:06:00,
2013-02-12 05:21:00,40.6,40.1,30.24,NE,45,0.0,-999.0,98,-99.99,,,0.01,Acu-Link.com,2013-02-12 13:21:00,
2013-02-12 05:36:00,40.6,40.1,30.24,East,90,0.0,-999.0,98,-99.99,,,0.01,Acu-Link.com,2013-02-12 13:36:00,
2013-02-12 05:52:00,40.6,40.1,30.24,SSE,157,1.6,-999.0,98,-99.99,,,0.01,Acu-Link.com,2013-02-12 13:52:00,
2013-02-12 06:07:00,40.6,40.1,30.24,ESE,112,2.2,-999.0,98,-99.99,,,0.01,Acu-Link.com,2013-02-12 14:07:00,
2013-02-12 06:22:00,40.8,40.3,30.25,ENE,67,2.2,-999.0,98,-99.99,,,0.02,Acu-Link.com,2013-02-12 14:22:00,
2013-02-12 06:37:00,40.8,40.3,30.24,ESE,112,2.2,-999.0,98,-99.99,,,0.02,Acu-Link.com,2013-02-12 14:37:00,
2013-02-12 06:53:00,40.8,40.3,30.25,NE,45,1.6,-999.0,98,-99.99,,,0.02,Acu-Link.com,2013-02-12 14:53:00,
2013-02-12 07:08:00,41.0,40.5,30.25,NNE,22,2.7,-999.0,98,-99.99,,,0.02,Acu-Link.com,2013-02-12 15:08:00,
2013-02-12 07:23:00,41.2,40.7,30.26,ENE,67,1.1,-999.0,98,-99.99,,,0.02,Acu-Link.com,2013-02-12 15:23:00,
2013-02-12 07:38:00,41.2,40.7,30.26,ESE,112,0.0,-999.0,98,-99.99,,,0.02,Acu-Link.com,2013-02-12 15:38:00,
2013-02-12 07:54:00,41.2,40.7,30.27,NE,45,0.0,-999.0,98,-99.99,,,0.02,Acu-Link.com,2013-02-12 15:54:00,
2013-02-12 08:09:00,41.2,40.7,30.26,East,90,0.0,-999.0,98,-99.99,,,0.02,Acu-Link.com,2013-02-12 16:09:00,
2013-02-12 08:24:00,41.2,40.7,30.25,ENE,67,1.6,-999.0,98,-99.99,,,0.02,Acu-Link.com,2013-02-12 16:24:00,
2013-02-12 08:39:00,41.7,41.2,30.25,East,90,1.1,-999.0,98,-99.99,,,0.02,Acu-Link.com,2013-02-12 16:39:00,
2013-02-12 08:55:00,41.9,41.4,30.27,NNE,22,2.2,-999.0,98,-99.99,,,0.02,Acu-Link.com,2013-02-12 16:55:00,
2013-02-12 09:10:00,41.9,41.4,30.27,ENE,67,1.1,-999.0,98,-99.99,,,0.02,Acu-Link.com,2013-02-12 17:10:00,
2013-02-12 09:25:00,42.1,41.6,30.28,ESE,112,2.2,-999.0,98,-99.99,,,0.02,Acu-Link.com,2013-02-12 17:25:00,
2013-02-12 09:40:00,42.3,41.7,30.27,NE,45,0.0,-999.0,98,-99.99,,,0.02,Acu-Link.com,2013-02-12 17:40:00,
2013-02-12 09:56:00,42.6,42.1,30.27,ESE,112,1.6,-999.0,98,-99.99,,,0.02,Acu-Link.com,2013-02-12 17:56:00,
2013-02-12 10:11:00,43.3,42.8,30.27,ENE,67,1.6,-999.0,98,-99.99,,,0.02,Acu-Link.com,2013-02-12 18:11:00,
2013-02-12 10:26:00,43.7,43.2,30.27,NNE,22,1.6,-999.0,98,-99.99,,,0.02,Acu-Link.com,2013-02-12 18:26:00,
2013-02-12 10:41:00,44.1,43.5,30.28,West,270,0.0,-999.0,98,-99.99,,,0.02,Acu-Link.com,2013-02-12 18:41:00,
2013-02-12 10:57:00,44.6,44.1,30.27,East,90,1.1,-999.0,98,-99.99,,,0.02,Acu-Link.com,2013-02-12 18:57:00,
2013-02-12 11:12:00,45.0,44.4,30.28,SSE,157,1.6,-999.0,98,-99.99,,,0.02,Acu-Link.com,2013-02-12 19:12:00,
2013-02-12 11:27:00,45.3,44.8,30.27,East,90,1.6,-999.0,98,-99.99,,,0.02,Acu-Link.com,2013-02-12 19:27:00,
2013-02-12 11:42:00,45.3,44.8,30.28,NE,45,0.0,-999.0,98,-99.99,,,0.02,Acu-Link.com,2013-02-12 19:42:00,
2013-02-12 11:58:00,45.3,44.8,30.27,ESE,112,2.2,-999.0,98,-99.99,,,0.04,Acu-Link.com,2013-02-12 19:58:00,
2013-02-12 12:13:00,45.7,45.1,30.26,ESE,112,1.6,-999.0,98,-99.99,,,0.04,Acu-Link.com,2013-02-12 20:13:00,
2013-02-12 12:28:00,45.5,45.0,30.25,ENE,67,2.2,-999.0,98,-99.99,,,0.04,Acu-Link.com,2013-02-12 20:28:00,
2013-02-12 12:43:00,45.5,45.0,30.24,SSE,157,3.1,-999.0,98,-99.99,,,0.04,Acu-Link.com,2013-02-12 20:43:00,
2013-02-12 12:59:00,46.0,45.5,30.24,ESE,112,4.3,-999.0,98,-99.99,,,0.04,Acu-Link.com,2013-02-12 20:59:00,
2013-02-12 13:14:00,46.0,45.5,30.23,SSE,157,3.8,-999.0,98,-99.99,,,0.05,Acu-Link.com,2013-02-12 21:14:00,
2013-02-12 13:29:00,45.9,45.3,30.22,ENE,67,3.8,-999.0,98,-99.99,,,0.05,Acu-Link.com,2013-02-12 21:29:00,
2013-02-12 13:44:00,46.0,45.5,30.22,South,180,2.7,-999.0,98,-99.99,,,0.05,Acu-Link.com,2013-02-12 21:44:00,
2013-02-12 14:00:00,45.7,45.1,30.22,NE,45,2.7,-999.0,98,-99.99,,,0.05,Acu-Link.com,2013-02-12 22:00:00,
2013-02-12 14:15:00,45.5,45.0,30.22,NE,45,0.0,-999.0,98,-99.99,,,0.05,Acu-Link.com,2013-02-12 22:15:00,
2013-02-12 14:30:00,45.3,44.8,30.22,ESE,112,4.3,-999.0,98,-99.99,,,0.05,Acu-Link.com,2013-02-12 22:30:00,
2013-02-12 14:45:00,45.3,44.8,30.22,ENE,67,2.2,-999.0,98,-99.99,,,0.05,Acu-Link.com,2013-02-12 22:45:00,
2013-02-12 15:01:00,45.0,44.4,30.21,ENE,67,1.6,-999.0,98,-99.99,,,0.05,Acu-Link.com,2013-02-12 23:01:00,
2013-02-12 15:16:00,44.8,44.2,30.21,ESE,112,2.2,-999.0,98,-99.99,,,0.05,Acu-Link.com,2013-02-12 23:16:00,
2013-02-12 15:31:00,44.8,44.2,30.21,ENE,67,2.2,-999.0,98,-99.99,,,0.05,Acu-Link.com,2013-02-12 23:31:00,
2013-02-12 15:46:00,44.8,44.2,30.21,NE,45,2.2,-999.0,98,-99.99,,,0.05,Acu-Link.com,2013-02-12 23:46:00,
2013-02-12 16:02:00,44.6,44.1,30.21,NE,45,2.2,-999.0,98,-99.99,,,0.05,Acu-Link.com,2013-02-13 00:02:00,
2013-02-12 16:17:00,44.6,44.1,30.20,SSE,157,0.0,-999.0,98,-99.99,,,0.05,Acu-Link.com,2013-02-13 00:17:00,
2013-02-12 16:32:00,44.8,44.2,30.19,NNE,22,2.2,-999.0,98,-99.99,,,0.05,Acu-Link.com,2013-02-13 00:32:00,
2013-02-12 16:47:00,44.6,44.1,30.19,ENE,67,2.7,-999.0,98,-99.99,,,0.05,Acu-Link.com,2013-02-13 00:47:00,
2013-02-12 17:03:00,44.6,44.1,30.18,ESE,112,2.2,-999.0,98,-99.99,,,0.05,Acu-Link.com,2013-02-13 01:03:00,
2013-02-12 17:18:00,44.4,43.9,30.17,ESE,112,0.0,-999.0,98,-99.99,,,0.05,Acu-Link.com,2013-02-13 01:18:00,
2013-02-12 17:33:00,44.4,43.9,30.17,East,90,0.0,-999.0,98,-99.99,,,0.05,Acu-Link.com,2013-02-13 01:33:00,
2013-02-12 17:48:00,44.4,43.9,30.16,ENE,67,0.0,-999.0,98,-99.99,,,0.05,Acu-Link.com,2013-02-13 01:48:00,
2013-02-12 18:04:00,44.2,43.7,30.15,ESE,112,2.2,-999.0,98,-99.99,,,0.05,Acu-Link.com,2013-02-13 02:04:00,
2013-02-12 18:19:00,44.1,43.5,30.15,NE,45,2.7,-999.0,98,-99.99,,,0.05,Acu-Link.com,2013-02-13 02:19:00,
2013-02-12 18:34:00,44.1,43.5,30.15,SE,135,2.2,-999.0,98,-99.99,,,0.05,Acu-Link.com,2013-02-13 02:34:00,
2013-02-12 18:49:00,43.9,43.4,30.14,ESE,112,2.7,-999.0,98,-99.99,,,0.05,Acu-Link.com,2013-02-13 02:49:00,
2013-02-12 19:05:00,43.9,43.4,30.14,NE,45,2.2,-999.0,98,-99.99,,,0.05,Acu-Link.com,2013-02-13 03:05:00,
2013-02-12 19:20:00,43.7,43.2,30.15,ESE,112,2.7,-999.0,98,-99.99,,,0.05,Acu-Link.com,2013-02-13 03:20:00,
2013-02-12 19:35:00,43.5,43.0,30.14,NNE,22,1.6,-999.0,98,-99.99,,,0.05,Acu-Link.com,2013-02-13 03:35:00,
2013-02-12 19:50:00,43.2,42.6,30.13,NNE,22,3.8,-999.0,98,-99.99,,,0.05,Acu-Link.com,2013-02-13 03:50:00,
2013-02-12 20:05:00,43.0,42.5,30.13,NNE,22,3.1,-999.0,98,-99.99,,,0.05,Acu-Link.com,2013-02-13 04:05:00,
2013-02-12 20:21:00,42.6,42.1,30.13,NNE,22,2.2,-999.0,98,-99.99,,,0.05,Acu-Link.com,2013-02-13 04:21:00,
2013-02-12 20:36:00,42.4,41.9,30.12,NE,45,3.1,-999.0,98,-99.99,,,0.05,Acu-Link.com,2013-02-13 04:36:00,
2013-02-12 20:51:00,42.4,41.9,30.13,NNE,22,2.2,-999.0,98,-99.99,,,0.05,Acu-Link.com,2013-02-13 04:51:00,
2013-02-12 21:06:00,42.4,41.9,30.12,NNE,22,2.7,-999.0,98,-99.99,,,0.05,Acu-Link.com,2013-02-13 05:06:00,
2013-02-12 21:22:00,42.1,41.6,30.12,NNE,22,2.2,-999.0,98,-99.99,,,0.05,Acu-Link.com,2013-02-13 05:22:00,
2013-02-12 21:37:00,41.5,41.0,30.11,East,90,2.2,-999.0,98,-99.99,,,0.05,Acu-Link.com,2013-02-13 05:37:00,
2013-02-12 21:52:00,41.2,40.7,30.12,NNE,22,0.0,-999.0,98,-99.99,,,0.05,Acu-Link.com,2013-02-13 05:52:00,
2013-02-12 22:07:00,41.0,40.5,30.12,East,90,1.6,-999.0,98,-99.99,,,0.05,Acu-Link.com,2013-02-13 06:07:00,
2013-02-12 22:22:00,40.8,40.3,30.12,NE,45,1.6,-999.0,98,-99.99,,,0.05,Acu-Link.com,2013-02-13 06:22:00,
2013-02-12 22:38:00,41.4,40.8,30.13,ENE,67,2.7,-999.0,98,-99.99,,,0.05,Acu-Link.com,2013-02-13 06:38:00,
2013-02-12 22:53:00,41.5,41.0,30.14,NW,315,0.0,-999.0,98,-99.99,,,0.05,Acu-Link.com,2013-02-13 06:53:00,
2013-02-12 23:08:00,41.9,41.4,30.13,ENE,67,1.6,-999.0,98,-99.99,,,0.05,Acu-Link.com,2013-02-13 07:08:00,
2013-02-12 23:23:00,41.9,41.4,30.14,East,90,1.6,-999.0,98,-99.99,,,0.05,Acu-Link.com,2013-02-13 07:23:00,
2013-02-12 23:39:00,41.9,41.4,30.13,ESE,112,2.2,-999.0,98,-99.99,,,0.05,Acu-Link.com,2013-02-13 07:39:00,
2013-02-12 23:54:00,42.3,41.7,30.13,SE,135,0.0,-999.0,98,-99.99,,,0.05,Acu-Link.com,2013-02-13 07:54:00,